createdAt,value
2023-03-28T00:02:42.126Z,0.44
2023-03-28T00:05:28.227Z,0.44
2023-03-28T00:08:14.681Z,0.46
2023-03-28T00:11:12.849Z,0.45
2023-03-28T00:14:02.423Z,0.46
2023-03-28T00:16:48.085Z,0.47
2023-03-28T00:19:33.922Z,0.48
2023-03-28T00:22:20.728Z,0.51
2023-03-28T00:25:07.875Z,0.52
2023-03-28T00:27:53.209Z,0.51
2023-03-28T00:30:38.611Z,0.53
2023-03-28T00:33:28.879Z,0.53
2023-03-28T00:36:18.541Z,0.53
2023-03-28T00:39:07.805Z,0.54
2023-03-28T00:41:57.424Z,0.54
2023-03-28T00:44:46.270Z,0.51
2023-03-28T00:47:54.853Z,0.45
2023-03-28T00:50:46.901Z,0.38
2023-03-28T00:53:33.898Z,0.29
2023-03-28T00:56:23.438Z,0.22
2023-03-28T00:59:13.666Z,0.18
2023-03-28T01:01:59.663Z,0.13
2023-03-28T01:04:54.858Z,0.09
2023-03-28T01:07:46.842Z,0.07
2023-03-28T01:10:37.860Z,0.04
2023-03-28T01:13:29.987Z,0.01
2023-03-28T01:16:18.507Z,-0.01
2023-03-28T01:19:04.705Z,-0.01
2023-03-28T01:22:26.938Z,0.00
2023-03-28T01:25:22.320Z,-0.02
2023-03-28T01:28:43.338Z,-0.04
2023-03-28T01:31:50.761Z,-0.06
2023-03-28T01:35:33.361Z,-0.06
2023-03-28T01:38:30.766Z,-0.03
2023-03-28T01:41:38.709Z,-0.01
2023-03-28T01:44:43.835Z,0.00
2023-03-28T01:47:40.230Z,0.01
2023-03-28T01:50:32.280Z,-0.01
2023-03-28T01:53:30.818Z,-0.03
2023-03-28T01:56:24.694Z,-0.08
2023-03-28T01:59:24.269Z,-0.10
2023-03-28T02:02:45.796Z,-0.11
2023-03-28T02:05:54.600Z,-0.07
2023-03-28T02:08:43.993Z,-0.06
2023-03-28T02:11:44.359Z,-0.03
2023-03-28T02:14:46.739Z,-0.02
2023-03-28T02:17:48.409Z,-0.01
2023-03-28T02:21:06.694Z,0.04
2023-03-28T02:24:21.349Z,0.06
2023-03-28T02:27:26.207Z,0.06
2023-03-28T02:30:30.106Z,0.08
2023-03-28T02:33:39.174Z,0.09
2023-03-28T02:36:38.888Z,0.13
2023-03-28T02:39:30.309Z,0.17
2023-03-28T02:42:37.512Z,0.18
2023-03-28T02:45:54.509Z,0.20
2023-03-28T02:49:13.344Z,0.22
2023-03-28T02:51:58.725Z,0.25
2023-03-28T02:54:58.259Z,0.24
2023-03-28T02:58:18.151Z,0.23
2023-03-28T03:01:08.185Z,0.21
2023-03-28T03:03:57.509Z,0.21
2023-03-28T03:06:45.624Z,0.19
2023-03-28T03:09:31.205Z,0.15
2023-03-28T03:12:16.771Z,0.15
2023-03-28T03:15:04.762Z,0.18
2023-03-28T03:18:19.911Z,0.18
2023-03-28T03:21:05.570Z,0.20
2023-03-28T03:23:51.656Z,0.20
2023-03-28T03:26:37.431Z,0.20
2023-03-28T03:29:24.406Z,0.21
2023-03-28T03:32:09.771Z,0.24
2023-03-28T03:35:02.833Z,0.24
2023-03-28T03:37:48.269Z,0.26
2023-03-28T03:40:33.569Z,0.24
2023-03-28T03:43:19.316Z,0.25
2023-03-28T03:46:05.184Z,0.25
2023-03-28T03:48:50.896Z,0.25
2023-03-28T03:51:36.718Z,0.26
2023-03-28T03:54:23.941Z,0.25
2023-03-28T03:57:09.633Z,0.26
2023-03-28T03:59:58.128Z,0.24
2023-03-28T04:02:44.886Z,0.24
2023-03-28T04:05:30.939Z,0.24
2023-03-28T04:08:24.380Z,0.24
2023-03-28T04:11:10.691Z,0.25
2023-03-28T04:14:00.968Z,0.27
2023-03-28T04:16:46.591Z,0.28
2023-03-28T04:19:32.119Z,0.28
2023-03-28T04:22:18.369Z,0.28
2023-03-28T04:25:10.796Z,0.29
2023-03-28T04:27:57.718Z,0.30
2023-03-28T04:30:44.582Z,0.29
2023-03-28T04:33:53.890Z,0.29
2023-03-28T04:36:41.534Z,0.32
2023-03-28T04:39:28.261Z,0.32
2023-03-28T04:42:35.660Z,0.35
2023-03-28T04:45:38.997Z,0.35
2023-03-28T04:48:31.562Z,0.35
2023-03-28T04:51:16.866Z,0.37
2023-03-28T04:54:03.219Z,0.39
2023-03-28T04:57:07.056Z,0.40
2023-03-28T05:00:01.035Z,0.40
2023-03-28T05:03:13.071Z,0.41
2023-03-28T05:06:10.833Z,0.41
2023-03-28T05:08:57.763Z,0.42
2023-03-28T05:11:46.699Z,0.42
2023-03-28T05:14:32.240Z,0.44
2023-03-28T05:17:30.283Z,0.44
2023-03-28T05:20:22.452Z,0.46
2023-03-28T05:23:11.910Z,0.46
2023-03-28T05:26:00.196Z,0.47
2023-03-28T05:28:49.936Z,0.48
2023-03-28T05:31:35.497Z,0.50
2023-03-28T05:34:36.111Z,0.52
2023-03-28T05:37:22.818Z,0.54
2023-03-28T05:40:15.408Z,0.55
2023-03-28T05:43:01.933Z,0.56
2023-03-28T05:45:47.894Z,0.56
2023-03-28T05:48:39.236Z,0.57
2023-03-28T05:51:24.726Z,0.57
2023-03-28T05:54:10.064Z,0.58
2023-03-28T05:56:55.562Z,0.59
2023-03-28T05:59:43.948Z,0.61
2023-03-28T06:02:33.543Z,0.66
2023-03-28T06:05:20.633Z,0.67
2023-03-28T06:08:06.591Z,0.70
2023-03-28T06:10:52.693Z,0.73
2023-03-28T06:13:45.188Z,0.78
2023-03-28T06:16:32.100Z,0.85
2023-03-28T06:19:18.845Z,0.89
2023-03-28T06:22:09.676Z,0.91
2023-03-28T06:24:56.398Z,0.92
2023-03-28T06:27:46.849Z,0.89
2023-03-28T06:30:32.350Z,0.88
2023-03-28T06:33:18.552Z,0.93
2023-03-28T06:36:04.147Z,1.01
2023-03-28T06:38:53.625Z,1.14
2023-03-28T06:41:41.628Z,1.25
2023-03-28T06:44:27.116Z,1.38
2023-03-28T06:47:25.844Z,1.45
2023-03-28T06:50:12.231Z,1.47
2023-03-28T06:53:08.361Z,1.50
2023-03-28T06:55:54.192Z,1.56
2023-03-28T06:58:39.643Z,1.60
2023-03-28T07:01:29.259Z,1.68
2023-03-28T07:04:23.363Z,1.73
2023-03-28T07:07:09.609Z,1.73
2023-03-28T07:09:55.244Z,1.69
2023-03-28T07:12:41.204Z,1.72
2023-03-28T07:15:26.860Z,1.72
2023-03-28T07:18:12.249Z,1.75
2023-03-28T07:21:04.170Z,1.74
2023-03-28T07:23:50.725Z,1.65
2023-03-28T07:26:42.216Z,1.51
2023-03-28T07:29:27.899Z,1.41
2023-03-28T07:32:14.244Z,1.38
2023-03-28T07:35:07.659Z,1.53
2023-03-28T07:37:59.922Z,1.69
2023-03-28T07:40:51.882Z,1.83
2023-03-28T07:43:38.842Z,1.87
2023-03-28T07:46:25.298Z,1.96
2023-03-28T07:49:10.921Z,2.03
2023-03-28T07:51:56.819Z,2.08
2023-03-28T07:54:42.419Z,2.12
2023-03-28T07:57:27.627Z,2.13
2023-03-28T08:00:36.389Z,2.14
2023-03-28T08:03:41.667Z,2.11
2023-03-28T08:06:32.389Z,2.01
2023-03-28T08:09:20.610Z,1.92
2023-03-28T08:12:11.254Z,1.87
2023-03-28T08:14:56.577Z,1.87
2023-03-28T08:17:42.416Z,1.90
2023-03-28T08:20:28.286Z,2.02
2023-03-28T08:23:22.355Z,2.08
2023-03-28T08:26:31.259Z,2.16
2023-03-28T08:29:16.867Z,2.21
2023-03-28T08:32:05.306Z,2.25
2023-03-28T08:34:51.183Z,2.28
2023-03-28T08:37:40.071Z,2.34
2023-03-28T08:40:28.852Z,2.42
2023-03-28T08:43:43.078Z,2.59
2023-03-28T08:46:30.580Z,2.82
2023-03-28T08:49:18.289Z,2.94
2023-03-28T08:52:05.557Z,3.07
2023-03-28T08:55:06.420Z,3.11
2023-03-28T08:57:54.658Z,3.00
2023-03-28T09:00:40.316Z,2.68
2023-03-28T09:03:26.429Z,2.38
2023-03-28T09:06:18.193Z,2.16
2023-03-28T09:09:22.595Z,1.99
2023-03-28T09:12:49.604Z,1.89
2023-03-28T09:15:42.169Z,2.02
2023-03-28T09:18:42.534Z,2.25
2023-03-28T09:22:12.523Z,2.53
2023-03-28T09:25:13.465Z,2.86
2023-03-28T09:28:06.672Z,2.91
2023-03-28T09:30:54.378Z,2.76
2023-03-28T09:33:43.163Z,2.40
2023-03-28T09:36:45.344Z,2.25
2023-03-28T09:39:42.340Z,2.14
2023-03-28T09:42:42.137Z,2.23
2023-03-28T09:46:10.019Z,2.48
2023-03-28T09:49:23.197Z,2.80
2023-03-28T09:52:18.842Z,3.14
2023-03-28T09:55:05.598Z,3.38
2023-03-28T09:58:06.254Z,3.43
2023-03-28T10:01:07.200Z,3.34
2023-03-28T10:04:17.775Z,3.23
2023-03-28T10:07:32.972Z,3.24
2023-03-28T10:10:31.710Z,3.41
2023-03-28T10:13:26.342Z,3.61
2023-03-28T10:16:14.814Z,3.71
2023-03-28T10:19:00.397Z,3.85
2023-03-28T10:22:11.097Z,4.12
2023-03-28T10:25:03.352Z,4.34
2023-03-28T10:27:52.454Z,4.47
2023-03-28T10:30:38.642Z,4.62
2023-03-28T10:33:33.100Z,4.76
2023-03-28T10:36:42.935Z,4.80
2023-03-28T10:39:32.507Z,4.76
2023-03-28T10:42:42.164Z,4.75
2023-03-28T10:45:54.052Z,4.70
2023-03-28T10:48:57.994Z,4.79
2023-03-28T10:51:45.837Z,4.90
2023-03-28T10:54:41.416Z,4.91
2023-03-28T10:57:44.826Z,4.54
2023-03-28T11:00:41.913Z,4.27
2023-03-28T11:03:38.305Z,4.09
2023-03-28T11:06:48.673Z,3.95
2023-03-28T11:10:04.005Z,3.84
2023-03-28T11:13:21.899Z,3.93
2023-03-28T11:16:42.504Z,4.17
2023-03-28T11:19:58.272Z,4.29
2023-03-28T11:23:05.592Z,4.33
2023-03-28T11:26:13.929Z,4.34
2023-03-28T11:29:49.487Z,4.30
2023-03-28T11:32:50.260Z,4.28
2023-03-28T11:35:42.076Z,4.23
2023-03-28T11:38:32.660Z,4.32
2023-03-28T11:41:27.067Z,4.50
2023-03-28T11:44:35.377Z,4.75
2023-03-28T11:47:29.819Z,4.81
2023-03-28T11:50:32.874Z,4.76
2023-03-28T11:53:56.330Z,4.75
2023-03-28T11:56:56.906Z,4.70
2023-03-28T12:00:14.882Z,4.65
2023-03-28T12:03:16.438Z,4.60
2023-03-28T12:06:19.607Z,4.64
2023-03-28T12:09:20.550Z,4.70
2023-03-28T12:12:14.179Z,4.70
2023-03-28T12:15:10.787Z,4.70
2023-03-28T12:18:35.855Z,4.70
2023-03-28T12:21:30.107Z,4.54
2023-03-28T12:24:27.978Z,4.45
2023-03-28T12:27:37.396Z,4.39
2023-03-28T12:31:00.104Z,4.54
2023-03-28T12:34:14.833Z,4.68
2023-03-28T12:37:39.844Z,4.67
2023-03-28T12:41:11.789Z,4.70
2023-03-28T12:44:03.416Z,4.96
2023-03-28T12:47:08.872Z,5.03
2023-03-28T12:50:06.775Z,5.17
2023-03-28T12:52:53.202Z,5.34
2023-03-28T12:55:54.102Z,5.49
2023-03-28T12:58:43.894Z,5.52
2023-03-28T13:01:46.877Z,5.49
2023-03-28T13:04:44.344Z,5.40
2023-03-28T13:07:47.232Z,5.19
2023-03-28T13:10:45.055Z,5.13
2023-03-28T13:13:53.260Z,5.21
2023-03-28T13:17:20.276Z,5.43
2023-03-28T13:20:25.822Z,5.63
2023-03-28T13:23:17.767Z,5.83
2023-03-28T13:26:06.629Z,5.95
2023-03-28T13:28:59.848Z,5.97
2023-03-28T13:31:45.659Z,5.93
2023-03-28T13:34:33.887Z,5.90
2023-03-28T13:37:25.781Z,5.83
2023-03-28T13:41:00.685Z,5.78
2023-03-28T13:43:51.037Z,5.75
2023-03-28T13:46:43.107Z,5.70
2023-03-28T13:49:28.466Z,5.69
2023-03-28T13:52:23.033Z,5.78
2023-03-28T13:55:22.558Z,6.03
2023-03-28T13:58:13.176Z,6.23
2023-03-28T14:01:17.765Z,6.26
2023-03-28T14:04:09.746Z,6.31
2023-03-28T14:06:56.238Z,6.27
2023-03-28T14:09:41.640Z,6.39
2023-03-28T14:12:30.217Z,6.60
2023-03-28T14:15:22.487Z,6.51
2023-03-28T14:18:15.756Z,6.56
2023-03-28T14:21:02.085Z,6.91
2023-03-28T14:24:07.574Z,7.70
2023-03-28T14:27:05.976Z,8.34
2023-03-28T14:29:56.201Z,8.99
2023-03-28T14:32:58.930Z,9.56
2023-03-28T14:35:47.146Z,10.04
2023-03-28T14:38:38.465Z,9.89
2023-03-28T14:41:28.357Z,9.25
2023-03-28T14:44:13.895Z,8.57
2023-03-28T14:46:59.956Z,8.22
2023-03-28T14:49:45.798Z,7.82
2023-03-28T14:52:40.987Z,7.40
2023-03-28T14:55:54.648Z,7.74
2023-03-28T14:58:43.812Z,8.15
2023-03-28T15:01:33.403Z,8.59
2023-03-28T15:04:22.194Z,8.66
2023-03-28T15:07:21.204Z,7.93
2023-03-28T15:10:11.803Z,7.26
2023-03-28T15:13:23.214Z,6.80
2023-03-28T15:16:09.255Z,6.53
2023-03-28T15:19:07.100Z,6.35
2023-03-28T15:22:14.856Z,6.19
2023-03-28T15:25:00.549Z,6.02
2023-03-28T15:27:51.556Z,5.79
2023-03-28T15:30:42.482Z,5.60
2023-03-28T15:33:33.422Z,5.51
2023-03-28T15:36:25.039Z,5.46
2023-03-28T15:39:25.552Z,5.38
2023-03-28T15:42:35.072Z,5.34
2023-03-28T15:45:20.869Z,5.34
2023-03-28T15:48:11.093Z,5.36
2023-03-28T15:50:56.592Z,5.39
2023-03-28T15:53:43.080Z,5.37
2023-03-28T15:56:31.933Z,5.32
2023-03-28T15:59:26.322Z,5.24
2023-03-28T16:02:21.464Z,5.13
2023-03-28T16:05:25.701Z,5.07
2023-03-28T16:08:28.816Z,4.98
2023-03-28T16:11:27.202Z,4.97
2023-03-28T16:14:46.560Z,4.95
2023-03-28T16:17:43.281Z,4.94
2023-03-28T16:20:46.558Z,4.91
2023-03-28T16:23:32.024Z,4.91
2023-03-28T16:26:17.377Z,4.94
2023-03-28T16:29:04.004Z,4.97
2023-03-28T16:31:49.543Z,5.02
2023-03-28T16:34:35.061Z,5.04
2023-03-28T16:37:21.882Z,5.06
2023-03-28T16:40:09.137Z,5.08
2023-03-28T16:42:55.905Z,5.05
2023-03-28T16:45:42.243Z,5.00
2023-03-28T16:48:27.801Z,4.92
2023-03-28T16:51:13.393Z,4.87
2023-03-28T16:53:58.843Z,4.82
2023-03-28T16:56:44.853Z,4.77
2023-03-28T16:59:30.467Z,4.72
2023-03-28T17:02:16.111Z,4.67
2023-03-28T17:05:01.588Z,4.57
2023-03-28T17:07:47.294Z,4.49
2023-03-28T17:10:33.191Z,4.42
2023-03-28T17:13:18.977Z,4.34
2023-03-28T17:16:06.160Z,4.26
2023-03-28T17:18:51.802Z,4.17
2023-03-28T17:21:37.560Z,4.08
2023-03-28T17:24:24.037Z,3.96
2023-03-28T17:27:10.031Z,3.88
2023-03-28T17:29:55.633Z,3.80
2023-03-28T17:32:41.318Z,3.72
2023-03-28T17:35:26.661Z,3.61
2023-03-28T17:38:11.995Z,3.51
2023-03-28T17:40:57.818Z,3.43
2023-03-28T17:43:43.717Z,3.32
2023-03-28T17:46:29.213Z,3.24
2023-03-28T17:49:16.291Z,3.15
2023-03-28T17:52:04.198Z,3.04
2023-03-28T17:54:51.432Z,2.91
2023-03-28T17:57:37.086Z,2.79
2023-03-28T18:00:22.785Z,2.65
2023-03-28T18:03:08.330Z,2.55
2023-03-28T18:06:12.965Z,2.41
2023-03-28T18:08:58.413Z,2.29
2023-03-28T18:11:44.021Z,2.16
2023-03-28T18:14:29.402Z,2.04
2023-03-28T18:17:15.957Z,1.96
2023-03-28T18:20:01.837Z,1.85
2023-03-28T18:22:47.256Z,1.76
2023-03-28T18:25:34.083Z,1.68
2023-03-28T18:28:26.591Z,1.58
2023-03-28T18:31:14.717Z,1.46
2023-03-28T18:34:00.134Z,1.31
2023-03-28T18:36:45.690Z,1.18
2023-03-28T18:39:31.584Z,1.05
2023-03-28T18:42:16.920Z,0.92
2023-03-28T18:45:02.635Z,0.78
2023-03-28T18:47:47.957Z,0.57
2023-03-28T18:50:33.571Z,0.41
2023-03-28T18:53:18.929Z,0.31
2023-03-28T18:56:06.011Z,0.23
2023-03-28T18:58:51.821Z,0.11
2023-03-28T19:01:41.250Z,-0.02
2023-03-28T19:04:28.564Z,-0.10
2023-03-28T19:07:15.177Z,-0.18
2023-03-28T19:10:01.180Z,-0.24
2023-03-28T19:12:47.203Z,-0.30
2023-03-28T19:15:33.095Z,-0.33
2023-03-28T19:18:18.420Z,-0.39
2023-03-28T19:21:04.207Z,-0.43
2023-03-28T19:23:49.796Z,-0.46
2023-03-28T19:26:35.151Z,-0.47
2023-03-28T19:29:20.509Z,-0.49
2023-03-28T19:32:05.874Z,-0.52
2023-03-28T19:34:51.629Z,-0.58
2023-03-28T19:37:37.138Z,-0.63
2023-03-28T19:40:22.493Z,-0.69
2023-03-28T19:43:07.755Z,-0.78
2023-03-28T19:45:53.484Z,-0.87
2023-03-28T19:48:40.246Z,-0.93
2023-03-28T19:51:26.234Z,-0.99
2023-03-28T19:54:12.045Z,-1.03
2023-03-28T19:56:57.711Z,-1.10
2023-03-28T19:59:43.032Z,-1.16
2023-03-28T20:02:28.737Z,-1.23
2023-03-28T20:05:14.072Z,-1.28
2023-03-28T20:07:59.536Z,-1.34
2023-03-28T20:10:51.288Z,-1.42
2023-03-28T20:13:36.993Z,-1.49
2023-03-28T20:16:22.375Z,-1.62
2023-03-28T20:19:07.658Z,-1.72
2023-03-28T20:21:53.004Z,-1.78
2023-03-28T20:24:38.807Z,-1.82
2023-03-28T20:27:25.133Z,-1.87
2023-03-28T20:30:11.709Z,-1.90
2023-03-28T20:32:58.569Z,-1.91
2023-03-28T20:35:55.774Z,-1.89
2023-03-28T20:38:41.184Z,-1.87
2023-03-28T20:41:29.238Z,-1.85
2023-03-28T20:44:20.049Z,-1.86
2023-03-28T20:47:07.802Z,-1.87
2023-03-28T20:49:56.951Z,-1.87
2023-03-28T20:52:42.698Z,-1.90
2023-03-28T20:55:29.496Z,-1.98
2023-03-28T20:58:14.936Z,-2.01
2023-03-28T21:01:01.915Z,-2.04
2023-03-28T21:03:49.025Z,-2.07
2023-03-28T21:06:38.184Z,-2.11
2023-03-28T21:09:24.019Z,-2.12
2023-03-28T21:12:09.618Z,-2.12
2023-03-28T21:14:58.077Z,-2.12
2023-03-28T21:17:43.888Z,-2.11
2023-03-28T21:20:29.181Z,-2.10
2023-03-28T21:23:16.147Z,-2.08
2023-03-28T21:26:01.565Z,-2.09
2023-03-28T21:28:47.489Z,-2.10
2023-03-28T21:31:33.235Z,-2.10
2023-03-28T21:34:18.754Z,-2.10
2023-03-28T21:37:04.663Z,-2.10
2023-03-28T21:39:50.420Z,-2.10
2023-03-28T21:42:35.863Z,-2.07
2023-03-28T21:45:22.019Z,-2.04
2023-03-28T21:48:07.298Z,-2.01
2023-03-28T21:50:59.298Z,-1.98
2023-03-28T21:53:45.775Z,-1.92
2023-03-28T21:56:31.267Z,-1.89
2023-03-28T21:59:16.607Z,-1.89
2023-03-28T22:02:01.897Z,-1.87
2023-03-28T22:04:47.210Z,-1.87
2023-03-28T22:07:32.764Z,-1.88
2023-03-28T22:10:18.952Z,-1.87
2023-03-28T22:13:06.778Z,-1.87
2023-03-28T22:15:52.830Z,-1.87
2023-03-28T22:18:49.816Z,-1.87
2023-03-28T22:21:37.147Z,-1.87
2023-03-28T22:24:24.570Z,-1.88
2023-03-28T22:27:10.503Z,-1.90
2023-03-28T22:29:56.908Z,-1.90
2023-03-28T22:32:42.562Z,-1.91
2023-03-28T22:35:28.020Z,-1.94
2023-03-28T22:38:14.301Z,-1.92
2023-03-28T22:40:59.950Z,-1.93
2023-03-28T22:43:47.016Z,-1.92
2023-03-28T22:46:32.749Z,-1.93
2023-03-28T22:49:22.138Z,-1.92
2023-03-28T22:52:07.737Z,-1.91
2023-03-28T22:54:53.133Z,-1.90
2023-03-28T22:57:38.425Z,-1.89
2023-03-28T23:00:23.939Z,-1.89
2023-03-28T23:03:10.413Z,-1.88
2023-03-28T23:05:56.587Z,-1.90
2023-03-28T23:08:42.522Z,-1.91
2023-03-28T23:11:28.314Z,-1.96
2023-03-28T23:14:14.567Z,-1.99
2023-03-28T23:17:02.242Z,-2.03
2023-03-28T23:19:49.986Z,-2.10
2023-03-28T23:22:36.277Z,-2.12
2023-03-28T23:25:22.418Z,-2.18
2023-03-28T23:28:08.089Z,-2.20
2023-03-28T23:30:53.521Z,-2.22
2023-03-28T23:33:40.053Z,-2.23
2023-03-28T23:36:26.140Z,-2.27
2023-03-28T23:39:13.386Z,-2.29
2023-03-28T23:41:59.225Z,-2.33
2023-03-28T23:44:44.550Z,-2.35
2023-03-28T23:47:29.976Z,-2.37
2023-03-28T23:50:15.406Z,-2.40
2023-03-28T23:53:00.945Z,-2.44
2023-03-28T23:55:46.669Z,-2.46
2023-03-28T23:58:31.883Z,-2.49
